UKDR/KWG METAR and TAF weather

Enter ICAO airport designator
Station Type Date Time Source
UKDR METAR 2021/09/25 02:00 UTC NOAA

UKDR 250200Z 29004MPS CAVOK 08/05 Q1007 R18/290157 NOSIG


Station Type Date Time Source
UKDR Decoded METAR 2021/09/25 02:00 UTC NOAA

Krivyy Rih / Dnipropetrovs'k, Ukraine (UKDR) 48-03N 033-13-12E
Sep 24, 2021 - 10:00 PM EDT / 2021.09.25 0200 UTC
Wind: from the WNW (290 degrees) at 9 MPH (8 KT):0
Visibility: greater than 7 mile(s):0
Temperature: 46 F (8 C)
Dew Point: 41 F (5 C)
Relative Humidity: 81%
Pressure (altimeter): 29.74 in. Hg (1007 hPa)
ob: UKDR 250200Z 29004MPS CAVOK 08/05 Q1007 R18/290157 NOSIG
cycle: 2

Station Type Date Time Source
UKDR TAF 2021/09/24 18:00 UTC NOAA

TAF UKDR 241709Z 2418/2518 27005MPS 5000 BR BKN012 SCT020CB
BECMG 2506/2508 30007G12MPS 9999 NSW BKN020

Example: see airport list